createdAt,value
2019-02-02T00:02:05.073Z,11.50
2019-02-02T00:04:37.165Z,11.50
2019-02-02T00:07:07.705Z,11.50
2019-02-02T00:09:38.212Z,11.50
2019-02-02T00:12:08.965Z,11.60
2019-02-02T00:14:39.469Z,11.60
2019-02-02T00:17:10.001Z,11.60
2019-02-02T00:19:41.537Z,11.60
2019-02-02T00:22:11.935Z,11.60
2019-02-02T00:24:42.435Z,11.70
2019-02-02T00:27:12.987Z,11.70
2019-02-02T00:29:43.444Z,11.70
2019-02-02T00:32:14.171Z,11.70
2019-02-02T00:34:44.643Z,11.70
2019-02-02T00:37:15.132Z,11.70
2019-02-02T00:39:45.738Z,11.80
2019-02-02T00:42:16.236Z,11.80
2019-02-02T00:44:46.694Z,11.80
2019-02-02T00:47:17.353Z,11.80
2019-02-02T00:49:47.830Z,11.80
2019-02-02T00:52:18.283Z,11.90
2019-02-02T00:54:48.805Z,11.90
2019-02-02T00:57:19.309Z,11.80
2019-02-02T00:59:49.839Z,11.80
2019-02-02T01:02:20.345Z,11.90
2019-02-02T01:04:50.917Z,11.90
2019-02-02T01:07:22.822Z,11.90
2019-02-02T01:09:53.346Z,11.90
2019-02-02T01:12:23.861Z,12.00
2019-02-02T01:14:54.365Z,12.00
2019-02-02T01:17:24.837Z,11.90
2019-02-02T01:19:55.299Z,12.00
2019-02-02T01:22:26.093Z,12.00
2019-02-02T01:24:56.708Z,12.00
2019-02-02T01:27:27.337Z,12.00
2019-02-02T01:29:57.825Z,12.00
2019-02-02T01:32:28.485Z,12.10
2019-02-02T01:34:58.974Z,12.00
2019-02-02T01:37:29.377Z,12.10
2019-02-02T01:39:59.793Z,12.10
2019-02-02T01:42:30.282Z,12.10
2019-02-02T01:45:00.858Z,12.10
2019-02-02T01:47:32.962Z,12.10
2019-02-02T01:50:03.437Z,12.10
2019-02-02T01:52:33.878Z,12.10
2019-02-02T01:55:05.352Z,12.20
2019-02-02T01:57:35.932Z,12.20
2019-02-02T02:00:07.830Z,12.20
2019-02-02T02:02:38.381Z,12.20
2019-02-02T02:05:09.070Z,12.20
2019-02-02T02:07:39.686Z,12.20
2019-02-02T02:10:11.227Z,12.20
2019-02-02T02:12:41.744Z,12.20
2019-02-02T02:15:13.794Z,12.20
2019-02-02T02:17:44.724Z,12.30
2019-02-02T02:20:16.452Z,12.30
2019-02-02T02:22:47.576Z,12.30
2019-02-02T02:25:21.417Z,12.30
2019-02-02T02:27:51.928Z,12.30
2019-02-02T02:30:23.830Z,12.40
2019-02-02T02:32:54.925Z,12.40
2019-02-02T02:35:25.577Z,12.40
2019-02-02T02:37:56.341Z,12.40
2019-02-02T02:40:26.882Z,12.50
2019-02-02T02:42:57.660Z,12.50
2019-02-02T02:45:28.329Z,12.50
2019-02-02T02:47:58.804Z,12.50
2019-02-02T02:50:29.333Z,12.50
2019-02-02T02:52:59.860Z,12.50
2019-02-02T02:55:30.376Z,12.50
2019-02-02T02:58:00.901Z,12.50
2019-02-02T03:00:31.436Z,12.60
2019-02-02T03:03:01.788Z,12.60
2019-02-02T03:05:32.431Z,12.60
2019-02-02T03:08:02.998Z,12.60
2019-02-02T03:10:33.549Z,12.60
2019-02-02T03:13:04.610Z,12.70
2019-02-02T03:15:35.028Z,12.70
2019-02-02T03:18:05.517Z,12.70
2019-02-02T03:20:35.971Z,12.70
2019-02-02T03:23:06.476Z,12.70
2019-02-02T03:25:39.679Z,12.70
2019-02-02T03:28:10.168Z,12.80
2019-02-02T03:30:40.598Z,12.80
2019-02-02T03:33:11.240Z,12.70
2019-02-02T03:35:41.684Z,12.80
2019-02-02T03:38:12.091Z,12.80
2019-02-02T03:40:42.645Z,12.80
2019-02-02T03:43:13.168Z,12.80
2019-02-02T03:45:43.548Z,12.90
2019-02-02T03:48:14.012Z,12.90
2019-02-02T03:50:44.866Z,12.90
2019-02-02T03:53:15.339Z,12.90
2019-02-02T03:55:46.095Z,12.90
2019-02-02T03:58:16.576Z,12.90
2019-02-02T04:00:47.261Z,12.90
2019-02-02T04:03:18.106Z,12.90
2019-02-02T04:05:48.622Z,12.90
2019-02-02T04:08:19.164Z,13.00
2019-02-02T04:10:49.735Z,13.00
2019-02-02T04:13:20.317Z,13.00
2019-02-02T04:15:50.728Z,13.00
2019-02-02T04:18:21.199Z,13.00
2019-02-02T04:20:52.056Z,13.00
2019-02-02T04:23:22.665Z,13.00
2019-02-02T04:25:53.187Z,13.00
2019-02-02T04:28:23.621Z,13.00
2019-02-02T04:30:53.974Z,13.00
2019-02-02T04:33:24.657Z,13.00
2019-02-02T04:35:55.181Z,13.00
2019-02-02T04:38:25.812Z,13.10
2019-02-02T04:40:56.290Z,13.10
2019-02-02T04:43:26.680Z,13.10
2019-02-02T04:45:57.037Z,13.10
2019-02-02T04:48:27.532Z,13.10
2019-02-02T04:50:57.902Z,13.10
2019-02-02T04:53:28.434Z,13.10
2019-02-02T04:55:58.909Z,13.10
2019-02-02T04:58:29.369Z,13.10
2019-02-02T05:00:59.828Z,13.10
2019-02-02T05:03:30.318Z,13.10
2019-02-02T05:06:00.709Z,13.10
2019-02-02T05:08:31.186Z,13.20
2019-02-02T05:11:01.879Z,13.20
2019-02-02T05:13:32.325Z,13.20
2019-02-02T05:16:02.684Z,13.10
2019-02-02T05:18:33.150Z,13.20
2019-02-02T05:21:03.702Z,13.20
2019-02-02T05:23:34.213Z,13.20
2019-02-02T05:26:04.717Z,13.20
2019-02-02T05:28:36.227Z,13.20
2019-02-02T05:31:07.045Z,13.20
2019-02-02T05:33:37.690Z,13.20
2019-02-02T05:36:08.046Z,13.30
2019-02-02T05:38:38.767Z,13.30
2019-02-02T05:41:09.204Z,13.30
2019-02-02T05:43:39.737Z,13.30
2019-02-02T05:46:10.481Z,13.30
2019-02-02T05:48:41.046Z,13.30
2019-02-02T05:51:11.550Z,13.30
2019-02-02T05:53:43.591Z,13.30
2019-02-02T05:56:14.101Z,13.30
2019-02-02T05:58:44.556Z,13.30
2019-02-02T06:01:18.456Z,13.30
2019-02-02T06:03:48.917Z,13.30
2019-02-02T06:06:19.600Z,13.30
2019-02-02T06:08:50.065Z,13.30
2019-02-02T06:11:20.476Z,13.30
2019-02-02T06:13:50.859Z,13.30
2019-02-02T06:16:21.637Z,13.30
2019-02-02T06:18:52.169Z,13.30
2019-02-02T06:21:22.850Z,13.40
2019-02-02T06:23:53.337Z,13.30
2019-02-02T06:26:23.746Z,13.40
2019-02-02T06:28:54.208Z,13.40
2019-02-02T06:31:24.608Z,13.40
2019-02-02T06:33:54.993Z,13.40
2019-02-02T06:36:25.345Z,13.40
2019-02-02T06:38:55.727Z,13.40
2019-02-02T06:41:26.534Z,13.40
2019-02-02T06:43:57.015Z,13.40
2019-02-02T06:46:27.469Z,13.50
2019-02-02T06:48:58.009Z,13.50
2019-02-02T06:51:28.606Z,13.50
2019-02-02T06:53:59.205Z,13.50
2019-02-02T06:56:29.631Z,13.50
2019-02-02T06:59:00.092Z,13.50
2019-02-02T07:01:30.777Z,13.50
2019-02-02T07:04:01.213Z,13.50
2019-02-02T07:06:31.756Z,13.50
2019-02-02T07:09:02.222Z,13.50
2019-02-02T07:11:36.087Z,13.50
2019-02-02T07:14:06.789Z,13.50
2019-02-02T07:16:48.542Z,13.50
2019-02-02T07:19:19.141Z,13.50
2019-02-02T07:21:49.636Z,13.50
2019-02-02T07:24:20.098Z,13.50
2019-02-02T07:26:50.618Z,13.50
2019-02-02T07:29:20.992Z,13.50
2019-02-02T07:31:51.476Z,13.50
2019-02-02T07:34:22.314Z,13.50
2019-02-02T07:36:53.097Z,13.60
2019-02-02T07:39:23.558Z,13.60
2019-02-02T07:41:54.001Z,13.60
2019-02-02T07:44:24.475Z,13.60
2019-02-02T07:46:54.987Z,13.60
2019-02-02T07:49:25.463Z,13.60
2019-02-02T07:51:55.969Z,13.70
2019-02-02T07:54:26.592Z,13.70
2019-02-02T07:56:56.979Z,13.70
2019-02-02T07:59:27.481Z,13.70
2019-02-02T08:01:58.147Z,13.70
2019-02-02T08:04:28.574Z,13.70
2019-02-02T08:06:59.048Z,13.70
2019-02-02T08:09:29.591Z,13.80
2019-02-02T08:12:00.049Z,13.80
2019-02-02T08:14:30.587Z,13.80
2019-02-02T08:17:01.121Z,13.90
2019-02-02T08:19:31.605Z,13.80
2019-02-02T08:22:02.204Z,13.80
2019-02-02T08:24:33.059Z,13.90
2019-02-02T08:27:03.604Z,13.90
2019-02-02T08:29:34.153Z,13.90
2019-02-02T08:32:04.825Z,14.00
2019-02-02T08:34:35.398Z,14.00
2019-02-02T08:37:05.934Z,14.00
2019-02-02T08:39:36.482Z,14.00
2019-02-02T08:42:06.945Z,14.00
2019-02-02T08:44:37.498Z,14.10
2019-02-02T08:47:08.135Z,14.10
2019-02-02T08:49:40.390Z,14.10
2019-02-02T08:52:11.033Z,14.10
2019-02-02T08:54:41.526Z,14.20
2019-02-02T08:57:12.127Z,14.20
2019-02-02T08:59:42.537Z,14.30
2019-02-02T09:02:15.998Z,14.30
2019-02-02T09:04:46.472Z,14.40
2019-02-02T09:07:20.276Z,14.50
2019-02-02T09:09:50.867Z,14.60
2019-02-02T09:12:21.549Z,14.70
2019-02-02T09:14:52.193Z,14.80
2019-02-02T09:17:23.659Z,14.90
2019-02-02T09:19:54.151Z,15.00
2019-02-02T09:22:24.676Z,15.00
2019-02-02T09:24:55.175Z,15.10
2019-02-02T09:27:25.685Z,15.20
2019-02-02T09:29:56.229Z,15.20
2019-02-02T09:32:26.965Z,15.30
2019-02-02T09:34:57.565Z,15.30
2019-02-02T09:37:28.170Z,15.40
2019-02-02T09:39:58.680Z,15.40
2019-02-02T09:42:31.277Z,15.50
2019-02-02T09:45:01.898Z,15.40
2019-02-02T09:47:33.536Z,15.50
2019-02-02T09:50:04.895Z,15.50
2019-02-02T09:52:35.499Z,15.60
2019-02-02T09:55:09.882Z,15.50
2019-02-02T09:57:40.588Z,15.60
2019-02-02T10:00:15.726Z,15.60
2019-02-02T10:02:46.569Z,15.60
2019-02-02T10:05:20.280Z,15.60
2019-02-02T10:07:51.731Z,15.60
2019-02-02T10:10:24.478Z,15.60
2019-02-02T10:12:56.383Z,15.60
2019-02-02T10:15:28.128Z,15.60
2019-02-02T10:18:01.848Z,15.60
2019-02-02T10:20:32.674Z,15.50
2019-02-02T10:23:20.562Z,15.60
2019-02-02T10:25:52.873Z,15.60
2019-02-02T10:28:24.638Z,15.60
2019-02-02T10:30:56.070Z,15.70
2019-02-02T10:33:26.702Z,15.80
2019-02-02T10:35:57.299Z,15.80
2019-02-02T10:38:29.508Z,15.80
2019-02-02T10:41:00.749Z,15.90
2019-02-02T10:43:32.315Z,15.90
2019-02-02T10:46:02.916Z,16.00
2019-02-02T10:48:33.559Z,16.10
2019-02-02T10:51:04.245Z,16.20
2019-02-02T10:53:35.645Z,16.20
2019-02-02T10:56:06.605Z,16.30
2019-02-02T10:58:37.152Z,16.40
2019-02-02T11:01:07.897Z,16.50
2019-02-02T11:03:38.607Z,16.50
2019-02-02T11:06:10.630Z,16.50
2019-02-02T11:09:04.246Z,16.60
2019-02-02T11:11:35.786Z,16.60
2019-02-02T11:14:07.985Z,16.70
2019-02-02T11:16:39.762Z,16.70
2019-02-02T11:19:10.340Z,16.70
2019-02-02T11:21:41.188Z,16.80
2019-02-02T11:24:11.856Z,16.80
2019-02-02T11:26:42.529Z,16.80
2019-02-02T11:29:13.291Z,16.80
2019-02-02T11:31:44.020Z,16.90
2019-02-02T11:34:14.775Z,16.90
2019-02-02T11:36:45.460Z,17.00
2019-02-02T11:39:16.282Z,17.00
2019-02-02T11:41:46.898Z,17.10
2019-02-02T11:44:20.003Z,17.10
2019-02-02T11:46:49.732Z,17.10
2019-02-02T11:49:20.294Z,17.20
2019-02-02T11:51:50.923Z,17.20
2019-02-02T11:54:21.511Z,17.20
2019-02-02T11:56:52.003Z,17.20
2019-02-02T11:59:22.914Z,17.30
2019-02-02T12:01:53.447Z,17.30
2019-02-02T12:04:24.082Z,17.30
2019-02-02T12:06:54.691Z,17.30
2019-02-02T12:09:25.166Z,17.40
2019-02-02T12:11:55.740Z,17.40
2019-02-02T12:14:27.829Z,17.50
2019-02-02T12:16:58.401Z,17.50
2019-02-02T12:19:28.980Z,17.50
2019-02-02T12:21:59.522Z,17.60
2019-02-02T12:24:30.117Z,17.60
2019-02-02T12:27:00.751Z,17.60
2019-02-02T12:29:31.249Z,17.70
2019-02-02T12:32:03.273Z,17.70
2019-02-02T12:34:33.881Z,17.70
2019-02-02T12:37:04.400Z,17.80
2019-02-02T12:39:34.902Z,17.80
2019-02-02T12:42:05.444Z,17.80
2019-02-02T12:44:35.957Z,17.90
2019-02-02T12:47:06.513Z,17.90
2019-02-02T12:49:38.672Z,17.90
2019-02-02T12:52:09.253Z,17.90
2019-02-02T12:54:39.715Z,17.90
2019-02-02T12:57:10.226Z,18.00
2019-02-02T12:59:40.778Z,17.90
2019-02-02T13:02:11.380Z,18.00
2019-02-02T13:04:41.974Z,18.00
2019-02-02T13:07:13.887Z,18.00
2019-02-02T13:09:46.979Z,18.00
2019-02-02T13:12:17.274Z,17.90
2019-02-02T13:14:47.855Z,17.90
2019-02-02T13:17:18.451Z,17.90
2019-02-02T13:19:49.064Z,17.90
2019-02-02T13:22:19.762Z,17.80
2019-02-02T13:24:50.394Z,17.80
2019-02-02T13:27:21.194Z,17.80
2019-02-02T13:29:52.211Z,17.80
2019-02-02T13:32:23.601Z,17.80
2019-02-02T13:38:47.972Z,17.80
2019-02-02T13:40:35.006Z,17.80
2019-02-02T13:43:07.520Z,17.80
2019-02-02T13:45:38.060Z,17.80
2019-02-02T13:48:08.574Z,17.80
2019-02-02T13:50:39.277Z,17.80
2019-02-02T13:53:10.324Z,17.80
2019-02-02T13:55:40.717Z,17.80
2019-02-02T13:58:11.930Z,17.70
2019-02-02T14:00:42.396Z,17.70
2019-02-02T14:03:13.649Z,17.70
2019-02-02T14:05:44.126Z,17.80
2019-02-02T14:08:14.673Z,17.70
2019-02-02T14:10:45.265Z,17.80
2019-02-02T14:13:15.763Z,17.80
2019-02-02T14:15:47.597Z,17.80
2019-02-02T14:18:18.146Z,17.80
2019-02-02T14:20:48.882Z,17.80
2019-02-02T14:23:22.565Z,17.80
2019-02-02T14:25:53.308Z,17.80
2019-02-02T14:28:28.463Z,17.80
2019-02-02T14:30:57.943Z,17.90
2019-02-02T14:33:28.889Z,17.90
2019-02-02T14:36:01.838Z,17.90
2019-02-02T14:38:32.142Z,17.90
2019-02-02T14:41:02.701Z,17.90
2019-02-02T14:43:33.419Z,17.90
2019-02-02T14:46:03.946Z,18.00
2019-02-02T14:48:34.555Z,18.00
2019-02-02T14:51:05.150Z,17.90
2019-02-02T14:53:36.071Z,17.90
2019-02-02T14:56:06.588Z,17.90
2019-02-02T14:58:37.134Z,18.00
2019-02-02T15:01:11.914Z,17.90
2019-02-02T15:03:42.624Z,18.00
2019-02-02T15:06:13.228Z,18.00
2019-02-02T15:08:43.925Z,18.00
2019-02-02T15:11:14.532Z,18.00
2019-02-02T15:13:45.080Z,18.00
2019-02-02T15:16:15.685Z,18.00
2019-02-02T15:18:47.054Z,18.00
2019-02-02T15:21:17.599Z,18.00
2019-02-02T15:23:48.206Z,18.00
2019-02-02T15:26:20.057Z,18.00
2019-02-02T15:28:51.536Z,18.00
2019-02-02T15:31:24.425Z,18.00
2019-02-02T15:33:55.143Z,18.00
2019-02-02T15:36:27.359Z,18.00
2019-02-02T15:38:57.974Z,18.00
2019-02-02T15:41:28.810Z,18.00
2019-02-02T15:43:59.623Z,17.90
2019-02-02T15:46:30.396Z,17.90
2019-02-02T15:49:01.116Z,17.90
2019-02-02T15:51:40.110Z,17.90
2019-02-02T15:54:04.529Z,17.80
2019-02-02T15:56:35.065Z,17.80
2019-02-02T15:59:05.647Z,17.80
2019-02-02T16:01:36.218Z,17.80
2019-02-02T16:04:06.969Z,17.70
2019-02-02T16:06:37.469Z,17.70
2019-02-02T16:09:10.106Z,17.70
2019-02-02T16:11:41.104Z,17.70
2019-02-02T16:14:11.802Z,17.70
2019-02-02T16:16:42.539Z,17.70
2019-02-02T16:19:13.205Z,17.60
2019-02-02T16:21:44.258Z,17.60
2019-02-02T16:24:14.826Z,17.60
2019-02-02T16:26:48.693Z,17.60
2019-02-02T16:29:19.816Z,17.50
2019-02-02T16:31:50.392Z,17.50
2019-02-02T16:34:29.731Z,17.40
2019-02-02T16:37:00.343Z,17.40
2019-02-02T16:39:30.864Z,17.30
2019-02-02T16:42:01.539Z,17.30
2019-02-02T16:44:33.626Z,17.20
2019-02-02T16:47:04.692Z,17.20
2019-02-02T16:49:35.329Z,17.10
2019-02-02T16:52:05.905Z,17.00
2019-02-02T16:54:40.822Z,17.00
2019-02-02T16:57:13.892Z,16.90
2019-02-02T16:59:45.574Z,16.80
2019-02-02T17:02:16.381Z,16.70
2019-02-02T17:04:47.040Z,16.60
2019-02-02T17:07:18.101Z,16.60
2019-02-02T17:09:49.836Z,16.50
2019-02-02T17:12:25.877Z,16.40
2019-02-02T17:14:56.674Z,16.30
2019-02-02T17:17:27.446Z,16.30
2019-02-02T17:19:58.640Z,16.20
2019-02-02T17:22:29.169Z,16.10
2019-02-02T17:24:59.812Z,16.10
2019-02-02T17:27:30.530Z,16.00
2019-02-02T17:30:01.224Z,15.90
2019-02-02T17:32:32.201Z,15.90
2019-02-02T17:35:02.857Z,15.90
2019-02-02T17:37:35.378Z,15.80
2019-02-02T17:40:08.612Z,15.80
2019-02-02T17:42:39.490Z,15.80
2019-02-02T17:45:12.643Z,15.70
2019-02-02T17:47:43.215Z,15.70
2019-02-02T17:50:17.006Z,15.70
2019-02-02T17:52:48.112Z,15.70
2019-02-02T17:55:19.222Z,15.70
2019-02-02T17:57:49.843Z,15.70
2019-02-02T18:00:33.220Z,15.60
2019-02-02T18:03:04.098Z,15.60
2019-02-02T18:05:34.616Z,15.60
2019-02-02T18:08:05.606Z,15.60
2019-02-02T18:10:36.192Z,15.60
2019-02-02T18:13:06.890Z,15.60
2019-02-02T18:15:39.907Z,15.50
2019-02-02T18:18:10.748Z,15.50
2019-02-02T18:20:41.529Z,15.50
2019-02-02T18:23:12.282Z,15.50
2019-02-02T18:25:43.102Z,15.50
2019-02-02T18:28:14.704Z,15.50
2019-02-02T18:30:45.380Z,15.50
2019-02-02T18:33:17.533Z,15.50
2019-02-02T18:35:48.043Z,15.40
2019-02-02T18:38:18.572Z,15.40
2019-02-02T18:40:49.081Z,15.40
2019-02-02T18:43:19.559Z,15.40
2019-02-02T18:45:50.123Z,15.40
2019-02-02T18:48:20.784Z,15.30
2019-02-02T18:50:52.117Z,15.40
2019-02-02T18:53:22.772Z,15.30
2019-02-02T18:56:01.001Z,15.30
2019-02-02T18:58:33.070Z,15.30
2019-02-02T19:01:03.682Z,15.30
2019-02-02T19:03:34.357Z,15.30
2019-02-02T19:06:05.408Z,15.40
2019-02-02T19:08:35.950Z,15.40
2019-02-02T19:11:06.823Z,15.30
2019-02-02T19:13:37.396Z,15.40
2019-02-02T19:16:08.088Z,15.40
2019-02-02T19:18:38.681Z,15.40
2019-02-02T19:21:09.329Z,15.30
2019-02-02T19:23:41.005Z,15.30
2019-02-02T19:26:11.607Z,15.30
2019-02-02T19:28:42.225Z,15.30
2019-02-02T19:31:12.853Z,15.40
2019-02-02T19:33:43.458Z,15.30
2019-02-02T19:36:14.029Z,15.40
2019-02-02T19:38:44.663Z,15.40
2019-02-02T19:41:15.199Z,15.40
2019-02-02T19:43:45.776Z,15.40
2019-02-02T19:46:16.705Z,15.30
2019-02-02T19:48:48.903Z,15.40
2019-02-02T19:51:20.281Z,15.40
2019-02-02T19:53:50.938Z,15.40
2019-02-02T19:56:21.502Z,15.40
2019-02-02T19:58:52.136Z,15.40
2019-02-02T20:01:22.682Z,15.40
2019-02-02T20:03:53.174Z,15.40
2019-02-02T20:06:25.373Z,15.40
2019-02-02T20:08:56.106Z,15.30
2019-02-02T20:11:26.681Z,15.30
2019-02-02T20:13:57.267Z,15.30
2019-02-02T20:16:27.830Z,15.30
2019-02-02T20:18:58.375Z,15.30
2019-02-02T20:21:29.298Z,15.30
2019-02-02T20:23:59.942Z,15.30
2019-02-02T20:26:30.555Z,15.30
2019-02-02T20:29:02.326Z,15.30
2019-02-02T20:31:32.786Z,15.30
2019-02-02T20:34:03.625Z,15.30
2019-02-02T20:36:34.380Z,15.20
2019-02-02T20:39:07.730Z,15.20
2019-02-02T20:41:38.563Z,15.10
2019-02-02T20:44:09.171Z,15.10
2019-02-02T20:46:39.931Z,15.10
2019-02-02T20:49:10.504Z,15.00
2019-02-02T20:51:41.084Z,14.90
2019-02-02T20:54:11.681Z,14.80
2019-02-02T20:56:42.714Z,14.80
2019-02-02T20:59:13.327Z,14.80
2019-02-02T21:01:45.871Z,14.70
2019-02-02T21:04:18.117Z,14.70
2019-02-02T21:06:48.681Z,14.60
2019-02-02T21:09:19.337Z,14.60
2019-02-02T21:11:57.202Z,14.60
2019-02-02T21:14:23.569Z,14.50
2019-02-02T21:16:55.977Z,14.50
2019-02-02T21:19:26.913Z,14.50
2019-02-02T21:21:57.541Z,14.50
2019-02-02T21:24:28.126Z,14.50
2019-02-02T21:26:58.707Z,14.50
2019-02-02T21:29:29.340Z,14.50
2019-02-02T21:32:00.282Z,14.50
2019-02-02T21:34:30.912Z,14.50
2019-02-02T21:37:01.552Z,14.60
2019-02-02T21:39:32.346Z,14.60
2019-02-02T21:42:03.031Z,14.60
2019-02-02T21:44:42.829Z,14.60
2019-02-02T21:47:05.796Z,14.60
2019-02-02T21:49:39.378Z,14.60
2019-02-02T21:52:11.241Z,14.60
2019-02-02T21:54:41.792Z,14.60
2019-02-02T21:57:12.361Z,14.70
2019-02-02T21:59:42.949Z,14.70
2019-02-02T22:02:13.488Z,14.70
2019-02-02T22:04:45.645Z,14.70
2019-02-02T22:07:16.616Z,14.70
2019-02-02T22:09:47.108Z,14.70
2019-02-02T22:12:17.946Z,14.70
2019-02-02T22:14:48.666Z,14.70
2019-02-02T22:17:19.252Z,14.70
2019-02-02T22:19:51.103Z,14.70
2019-02-02T22:22:21.807Z,14.70
2019-02-02T22:24:57.372Z,14.70
2019-02-02T22:27:27.894Z,14.70
2019-02-02T22:29:59.913Z,14.70
2019-02-02T22:32:30.964Z,14.70
2019-02-02T22:35:19.802Z,14.70
2019-02-02T22:38:30.223Z,14.70
2019-02-02T22:41:06.828Z,14.70
2019-02-02T22:43:35.908Z,14.60
2019-02-02T22:46:07.773Z,14.60
2019-02-02T22:48:38.349Z,14.60
2019-02-02T22:51:08.880Z,14.60
2019-02-02T22:53:39.421Z,14.60
2019-02-02T22:56:10.345Z,14.50
2019-02-02T22:58:40.840Z,14.60
2019-02-02T23:01:34.167Z,14.50
2019-02-02T23:04:58.429Z,14.50
2019-02-02T23:07:53.511Z,14.50
2019-02-02T23:11:19.428Z,14.50
2019-02-02T23:14:35.065Z,14.40
2019-02-02T23:17:19.565Z,14.40
2019-02-02T23:19:50.306Z,14.40
2019-02-02T23:22:21.002Z,14.40
2019-02-02T23:24:51.731Z,14.30
2019-02-02T23:27:22.347Z,14.30
2019-02-02T23:29:53.841Z,14.30
2019-02-02T23:32:24.413Z,14.20
2019-02-02T23:34:54.997Z,14.20
2019-02-02T23:37:25.484Z,14.20
2019-02-02T23:39:56.052Z,14.20
2019-02-02T23:42:26.602Z,14.20
2019-02-02T23:44:57.143Z,14.20
2019-02-02T23:47:27.614Z,14.10
2019-02-02T23:49:58.100Z,14.10
2019-02-02T23:52:28.688Z,14.10
2019-02-02T23:54:59.223Z,14.10
2019-02-02T23:57:32.472Z,14.10
